createdAt,value
2019-06-27T00:00:31.436Z,1021.68
2019-06-27T00:01:31.455Z,1021.75
2019-06-27T00:02:31.476Z,1021.69
2019-06-27T00:03:31.508Z,1021.70
2019-06-27T00:04:31.520Z,1021.71
2019-06-27T00:05:31.546Z,1021.68
2019-06-27T00:06:31.670Z,1021.70
2019-06-27T00:07:31.588Z,1021.73
2019-06-27T00:08:31.604Z,1021.77
2019-06-27T00:09:32.027Z,1021.80
2019-06-27T00:10:34.243Z,1021.77
2019-06-27T00:11:31.674Z,1021.72
2019-06-27T00:12:31.697Z,1021.70
2019-06-27T00:13:31.711Z,1021.75
2019-06-27T00:14:31.730Z,1021.76
2019-06-27T00:15:32.024Z,1021.79
2019-06-27T00:16:31.779Z,1021.79
2019-06-27T00:17:31.795Z,1021.78
2019-06-27T00:18:31.817Z,1021.76
2019-06-27T00:19:31.846Z,1021.76
2019-06-27T00:20:32.010Z,1021.76
2019-06-27T00:21:31.880Z,1021.76
2019-06-27T00:22:32.351Z,1021.80
2019-06-27T00:23:31.928Z,1021.80
2019-06-27T00:24:31.946Z,1021.79
2019-06-27T00:25:31.971Z,1021.82
2019-06-27T00:26:31.986Z,1021.78
2019-06-27T00:27:32.009Z,1021.79
2019-06-27T00:28:32.029Z,1021.80
2019-06-27T00:29:32.122Z,1021.74
2019-06-27T00:30:32.085Z,1021.73
2019-06-27T00:31:32.100Z,1021.78
2019-06-27T00:32:32.116Z,1021.76
2019-06-27T00:33:32.136Z,1021.78
2019-06-27T00:34:32.156Z,1021.76
2019-06-27T00:35:32.180Z,1021.71
2019-06-27T00:36:32.202Z,1021.74
2019-06-27T00:37:32.231Z,1021.81
2019-06-27T00:38:32.247Z,1021.74
2019-06-27T00:39:32.263Z,1021.79
2019-06-27T00:40:32.290Z,1021.78
2019-06-27T00:41:32.305Z,1021.75
2019-06-27T00:42:32.327Z,1021.75
2019-06-27T00:43:32.348Z,1021.74
2019-06-27T00:44:32.379Z,1021.73
2019-06-27T00:45:32.393Z,1021.74
2019-06-27T00:46:32.412Z,1021.74
2019-06-27T00:47:32.441Z,1021.72
2019-06-27T00:48:32.463Z,1021.72
2019-06-27T00:49:32.482Z,1021.75
2019-06-27T00:50:32.503Z,1021.77
2019-06-27T00:51:32.518Z,1021.82
2019-06-27T00:52:32.544Z,1021.77
2019-06-27T00:53:32.569Z,1021.78
2019-06-27T00:54:32.583Z,1021.80
2019-06-27T00:55:32.611Z,1021.82
2019-06-27T00:56:32.627Z,1021.89
2019-06-27T00:57:32.658Z,1021.81
2019-06-27T00:58:32.667Z,1021.81
2019-06-27T00:59:32.691Z,1021.78
2019-06-27T01:00:32.711Z,1021.82
2019-06-27T01:01:32.747Z,1021.78
2019-06-27T01:02:32.752Z,1021.76
2019-06-27T01:03:32.784Z,1021.84
2019-06-27T01:04:32.813Z,1021.79
2019-06-27T01:05:32.824Z,1021.78
2019-06-27T01:06:32.838Z,1021.81
2019-06-27T01:07:32.858Z,1021.80
2019-06-27T01:08:32.889Z,1021.85
2019-06-27T01:09:32.912Z,1021.81
2019-06-27T01:10:32.922Z,1021.84
2019-06-27T01:11:32.956Z,1021.84
2019-06-27T01:12:32.971Z,1021.91
2019-06-27T01:13:32.987Z,1021.90
2019-06-27T01:14:33.017Z,1021.89
2019-06-27T01:15:33.031Z,1021.91
2019-06-27T01:16:33.068Z,1021.95
2019-06-27T01:17:33.079Z,1021.86
2019-06-27T01:18:33.092Z,1021.88
2019-06-27T01:19:33.171Z,1021.87
2019-06-27T01:20:33.136Z,1021.84
2019-06-27T01:21:33.157Z,1021.86
2019-06-27T01:22:33.184Z,1021.93
2019-06-27T01:23:33.199Z,1021.90
2019-06-27T01:24:33.227Z,1021.88
2019-06-27T01:25:33.243Z,1021.92
2019-06-27T01:26:33.271Z,1021.88
2019-06-27T01:27:33.293Z,1021.92
2019-06-27T01:28:33.321Z,1021.92
2019-06-27T01:29:33.334Z,1021.92
2019-06-27T01:30:33.348Z,1021.93
2019-06-27T01:31:33.370Z,1021.91
2019-06-27T01:32:33.394Z,1021.91
2019-06-27T01:33:33.414Z,1021.96
2019-06-27T01:34:33.846Z,1021.94
2019-06-27T01:35:33.455Z,1021.96
2019-06-27T01:36:33.491Z,1021.87
2019-06-27T01:37:33.506Z,1021.86
2019-06-27T01:38:33.522Z,1021.90
2019-06-27T01:39:33.544Z,1021.86
2019-06-27T01:40:33.632Z,1021.82
2019-06-27T01:41:33.583Z,1021.82
2019-06-27T01:42:33.612Z,1021.82
2019-06-27T01:43:33.628Z,1021.85
2019-06-27T01:44:33.682Z,1021.85
2019-06-27T01:45:33.668Z,1021.90
2019-06-27T01:46:33.701Z,1021.88
2019-06-27T01:47:33.725Z,1021.88
2019-06-27T01:48:33.740Z,1021.89
2019-06-27T01:49:33.753Z,1021.87
2019-06-27T01:50:33.783Z,1021.87
2019-06-27T01:51:33.797Z,1021.92
2019-06-27T01:52:33.819Z,1021.90
2019-06-27T01:53:33.842Z,1021.88
2019-06-27T01:54:33.865Z,1021.88
2019-06-27T01:55:33.882Z,1021.91
2019-06-27T01:56:33.902Z,1021.95
2019-06-27T01:57:46.204Z,1021.93
2019-06-27T01:58:33.945Z,1021.98
2019-06-27T01:59:33.971Z,1021.95
2019-06-27T02:00:33.989Z,1021.94
2019-06-27T02:01:34.009Z,1021.94
2019-06-27T02:02:34.029Z,1021.98
2019-06-27T02:03:34.052Z,1021.91
2019-06-27T02:04:34.076Z,1021.95
2019-06-27T02:05:34.101Z,1021.88
2019-06-27T02:06:34.116Z,1021.94
2019-06-27T02:07:34.138Z,1021.93
2019-06-27T02:08:34.220Z,1021.97
2019-06-27T02:09:34.178Z,1021.96
2019-06-27T02:10:34.199Z,1021.93
2019-06-27T02:11:34.227Z,1021.94
2019-06-27T02:12:34.241Z,1021.92
2019-06-27T02:13:34.263Z,1021.89
2019-06-27T02:14:34.283Z,1021.87
2019-06-27T02:15:34.317Z,1021.90
2019-06-27T02:16:34.329Z,1021.87
2019-06-27T02:17:34.349Z,1021.88
2019-06-27T02:18:34.386Z,1021.89
2019-06-27T02:19:34.398Z,1021.82
2019-06-27T02:20:34.419Z,1021.90
2019-06-27T02:21:34.487Z,1021.93
2019-06-27T02:22:34.461Z,1021.90
2019-06-27T02:23:34.476Z,1021.96
2019-06-27T02:24:34.496Z,1021.96
2019-06-27T02:25:34.517Z,1021.96
2019-06-27T02:26:34.898Z,1022.00
2019-06-27T02:27:34.567Z,1022.02
2019-06-27T02:28:34.581Z,1022.04
2019-06-27T02:29:34.601Z,1021.98
2019-06-27T02:30:34.624Z,1022.00
2019-06-27T02:31:34.649Z,1022.03
2019-06-27T02:32:34.683Z,1022.05
2019-06-27T02:33:34.693Z,1022.03
2019-06-27T02:34:34.706Z,1022.00
2019-06-27T02:35:34.730Z,1022.06
2019-06-27T02:36:34.749Z,1022.03
2019-06-27T02:37:34.772Z,1022.05
2019-06-27T02:38:34.805Z,1022.05
2019-06-27T02:39:34.897Z,1022.06
2019-06-27T02:40:34.837Z,1022.04
2019-06-27T02:41:34.858Z,1022.09
2019-06-27T02:42:34.886Z,1022.06
2019-06-27T02:43:34.915Z,1022.10
2019-06-27T02:44:34.945Z,1022.11
2019-06-27T02:45:34.945Z,1022.12
2019-06-27T02:46:34.964Z,1022.09
2019-06-27T02:47:34.981Z,1022.09
2019-06-27T02:48:35.011Z,1022.12
2019-06-27T02:49:35.028Z,1022.15
2019-06-27T02:50:35.054Z,1022.12
2019-06-27T02:51:35.074Z,1022.13
2019-06-27T02:52:35.102Z,1022.13
2019-06-27T02:53:35.118Z,1022.16
2019-06-27T02:54:35.141Z,1022.16
2019-06-27T02:55:35.153Z,1022.17
2019-06-27T02:56:35.194Z,1022.19
2019-06-27T02:57:35.204Z,1022.20
2019-06-27T02:58:35.221Z,1022.21
2019-06-27T02:59:35.245Z,1022.17
2019-06-27T03:00:35.267Z,1022.17
2019-06-27T03:01:35.287Z,1022.18
2019-06-27T03:02:35.302Z,1022.22
2019-06-27T03:03:35.319Z,1022.22
2019-06-27T03:04:35.345Z,1022.22
2019-06-27T03:05:35.364Z,1022.23
2019-06-27T03:06:35.394Z,1022.25
2019-06-27T03:07:35.412Z,1022.25
2019-06-27T03:08:35.426Z,1022.25
2019-06-27T03:09:35.449Z,1022.27
2019-06-27T03:10:35.474Z,1022.19
2019-06-27T03:11:35.490Z,1022.23
2019-06-27T03:12:35.527Z,1022.23
2019-06-27T03:13:35.539Z,1022.27
2019-06-27T03:14:35.553Z,1022.30
2019-06-27T03:15:35.574Z,1022.28
2019-06-27T03:16:35.602Z,1022.27
2019-06-27T03:17:35.623Z,1022.25
2019-06-27T03:18:35.645Z,1022.28
2019-06-27T03:19:35.667Z,1022.25
2019-06-27T03:20:35.679Z,1022.21
2019-06-27T03:21:35.710Z,1022.25
2019-06-27T03:22:35.730Z,1022.26
2019-06-27T03:23:36.044Z,1022.26
2019-06-27T03:24:35.765Z,1022.30
2019-06-27T03:25:35.799Z,1022.31
2019-06-27T03:26:35.809Z,1022.31
2019-06-27T03:27:35.831Z,1022.34
2019-06-27T03:28:50.675Z,1022.29
2019-06-27T03:29:35.876Z,1022.28
2019-06-27T03:30:35.903Z,1022.29
2019-06-27T03:31:35.911Z,1022.34
2019-06-27T03:32:35.940Z,1022.30
2019-06-27T03:33:35.956Z,1022.34
2019-06-27T03:34:35.976Z,1022.26
2019-06-27T03:35:35.995Z,1022.31
2019-06-27T03:36:36.016Z,1022.30
2019-06-27T03:37:36.042Z,1022.31
2019-06-27T03:38:36.057Z,1022.29
2019-06-27T03:39:36.080Z,1022.32
2019-06-27T03:40:36.118Z,1022.33
2019-06-27T03:41:36.122Z,1022.34
2019-06-27T03:42:36.143Z,1022.34
2019-06-27T03:43:36.168Z,1022.41
2019-06-27T03:44:36.184Z,1022.40
2019-06-27T03:45:36.214Z,1022.41
2019-06-27T03:46:36.227Z,1022.42
2019-06-27T03:47:36.248Z,1022.42
2019-06-27T03:48:36.267Z,1022.40
2019-06-27T03:49:36.292Z,1022.43
2019-06-27T03:50:36.308Z,1022.40
2019-06-27T03:51:36.341Z,1022.43
2019-06-27T03:52:36.357Z,1022.43
2019-06-27T03:53:36.377Z,1022.41
2019-06-27T03:54:36.392Z,1022.42
2019-06-27T03:55:36.424Z,1022.45
2019-06-27T03:56:36.438Z,1022.46
2019-06-27T03:57:36.459Z,1022.45
2019-06-27T03:58:36.486Z,1022.49
2019-06-27T03:59:36.506Z,1022.44
2019-06-27T04:00:36.525Z,1022.51
2019-06-27T04:01:36.542Z,1022.43
2019-06-27T04:02:36.571Z,1022.42
2019-06-27T04:03:36.590Z,1022.38
2019-06-27T04:04:36.605Z,1022.39
2019-06-27T04:05:36.634Z,1022.36
2019-06-27T04:06:36.648Z,1022.37
2019-06-27T04:07:36.667Z,1022.34
2019-06-27T04:08:36.710Z,1022.33
2019-06-27T04:09:36.710Z,1022.38
2019-06-27T04:10:36.736Z,1022.37
2019-06-27T04:11:36.760Z,1022.36
2019-06-27T04:12:36.775Z,1022.38
2019-06-27T04:13:36.797Z,1022.42
2019-06-27T04:14:36.816Z,1022.39
2019-06-27T04:15:36.837Z,1022.36
2019-06-27T04:16:36.870Z,1022.39
2019-06-27T04:17:36.883Z,1022.40
2019-06-27T04:18:36.900Z,1022.41
2019-06-27T04:19:36.924Z,1022.43
2019-06-27T04:20:36.949Z,1022.43
2019-06-27T04:21:36.966Z,1022.43
2019-06-27T04:22:36.989Z,1022.41
2019-06-27T04:23:37.010Z,1022.50
2019-06-27T04:24:37.026Z,1022.50
2019-06-27T04:25:37.048Z,1022.48
2019-06-27T04:26:37.076Z,1022.48
2019-06-27T04:27:37.095Z,1022.49
2019-06-27T04:28:37.124Z,1022.53
2019-06-27T04:29:37.183Z,1022.57
2019-06-27T04:30:37.257Z,1022.62
2019-06-27T04:31:37.173Z,1022.65
2019-06-27T04:32:37.204Z,1022.62
2019-06-27T04:33:37.217Z,1022.68
2019-06-27T04:34:37.237Z,1022.67
2019-06-27T04:35:37.267Z,1022.66
2019-06-27T04:36:37.288Z,1022.68
2019-06-27T04:37:37.303Z,1022.69
2019-06-27T04:38:37.327Z,1022.65
2019-06-27T04:39:37.345Z,1022.70
2019-06-27T04:40:37.380Z,1022.71
2019-06-27T04:41:37.386Z,1022.66
2019-06-27T04:42:37.412Z,1022.69
2019-06-27T04:43:37.429Z,1022.74
2019-06-27T04:44:37.457Z,1022.71
2019-06-27T04:45:37.478Z,1022.68
2019-06-27T04:46:37.498Z,1022.73
2019-06-27T04:47:37.520Z,1022.70
2019-06-27T04:48:37.565Z,1022.75
2019-06-27T04:49:37.557Z,1022.70
2019-06-27T04:50:37.575Z,1022.73
2019-06-27T04:51:37.598Z,1022.71
2019-06-27T04:52:37.624Z,1022.68
2019-06-27T04:53:37.647Z,1022.72
2019-06-27T04:54:37.661Z,1022.73
2019-06-27T04:55:37.704Z,1022.74
2019-06-27T04:56:37.712Z,1022.76
2019-06-27T04:57:37.736Z,1022.70
2019-06-27T04:58:37.748Z,1022.72
2019-06-27T04:59:52.719Z,1022.71
2019-06-27T05:00:37.794Z,1022.72
2019-06-27T05:01:37.818Z,1022.70
2019-06-27T05:02:38.003Z,1022.74
2019-06-27T05:03:37.856Z,1022.71
2019-06-27T05:04:37.883Z,1022.67
2019-06-27T05:05:37.900Z,1022.69
2019-06-27T05:06:37.924Z,1022.71
2019-06-27T05:07:37.973Z,1022.73
2019-06-27T05:08:37.959Z,1022.73
2019-06-27T05:09:37.980Z,1022.74
2019-06-27T05:10:38.002Z,1022.69
2019-06-27T05:11:38.027Z,1022.74
2019-06-27T05:12:38.061Z,1022.73
2019-06-27T05:13:38.063Z,1022.77
2019-06-27T05:14:38.282Z,1022.77
2019-06-27T05:15:38.108Z,1022.83
2019-06-27T05:16:38.129Z,1022.88
2019-06-27T05:17:38.149Z,1022.85
2019-06-27T05:18:38.168Z,1022.88
2019-06-27T05:19:38.192Z,1022.85
2019-06-27T05:20:38.229Z,1022.87
2019-06-27T05:21:38.251Z,1022.85
2019-06-27T05:22:38.260Z,1022.86
2019-06-27T05:23:38.306Z,1022.85
2019-06-27T05:24:38.300Z,1022.88
2019-06-27T05:25:38.328Z,1022.94
2019-06-27T05:26:38.359Z,1022.93
2019-06-27T05:27:38.366Z,1022.90
2019-06-27T05:28:38.383Z,1022.91
2019-06-27T05:29:38.407Z,1022.94
2019-06-27T05:30:38.434Z,1022.92
2019-06-27T05:31:38.450Z,1022.90
2019-06-27T05:32:38.469Z,1022.92
2019-06-27T05:33:38.499Z,1022.91
2019-06-27T05:34:38.534Z,1022.93
2019-06-27T05:35:38.536Z,1022.99
2019-06-27T05:36:38.564Z,1022.99
2019-06-27T05:37:38.586Z,1023.01
2019-06-27T05:38:38.621Z,1023.03
2019-06-27T05:39:38.622Z,1023.02
2019-06-27T05:40:38.648Z,1022.98
2019-06-27T05:41:38.672Z,1023.02
2019-06-27T05:42:38.688Z,1023.04
2019-06-27T05:43:38.709Z,1023.06
2019-06-27T05:44:38.746Z,1023.05
2019-06-27T05:45:38.756Z,1023.03
2019-06-27T05:46:38.780Z,1023.05
2019-06-27T05:47:38.799Z,1023.05
2019-06-27T05:48:39.773Z,1023.09
2019-06-27T05:49:38.843Z,1023.08
2019-06-27T05:50:38.858Z,1023.05
2019-06-27T05:51:38.879Z,1023.06
2019-06-27T05:52:38.919Z,1023.06
2019-06-27T05:53:38.929Z,1023.09
2019-06-27T05:54:38.943Z,1023.07
2019-06-27T05:55:38.966Z,1023.04
2019-06-27T05:56:38.986Z,1023.06
2019-06-27T05:57:39.009Z,1023.08
2019-06-27T05:58:39.032Z,1023.09
2019-06-27T05:59:39.052Z,1023.12
2019-06-27T06:00:39.091Z,1023.13
2019-06-27T06:01:39.095Z,1023.09
2019-06-27T06:02:39.119Z,1023.06
2019-06-27T06:03:39.140Z,1023.08
2019-06-27T06:04:39.168Z,1023.07
2019-06-27T06:05:39.182Z,1023.07
2019-06-27T06:06:39.203Z,1023.05
2019-06-27T06:07:39.241Z,1023.06
2019-06-27T06:08:39.256Z,1023.09
2019-06-27T06:09:39.279Z,1023.06
2019-06-27T06:10:39.293Z,1022.98
2019-06-27T06:11:39.318Z,1023.01
2019-06-27T06:12:39.336Z,1023.01
2019-06-27T06:13:39.365Z,1023.04
2019-06-27T06:14:39.381Z,1023.02
2019-06-27T06:15:39.399Z,1023.03
2019-06-27T06:16:39.421Z,1023.01
2019-06-27T06:17:39.445Z,1023.02
2019-06-27T06:18:39.470Z,1023.07
2019-06-27T06:19:39.490Z,1023.06
2019-06-27T06:20:39.515Z,1023.06
2019-06-27T06:21:39.555Z,1023.04
2019-06-27T06:22:39.552Z,1023.06
2019-06-27T06:23:39.578Z,1023.11
2019-06-27T06:24:39.604Z,1023.11
2019-06-27T06:25:39.627Z,1023.11
2019-06-27T06:26:39.645Z,1023.12
2019-06-27T06:27:39.665Z,1023.09
2019-06-27T06:28:39.689Z,1023.13
2019-06-27T06:29:39.711Z,1023.15
2019-06-27T06:30:44.446Z,1023.12
2019-06-27T06:31:39.759Z,1023.13
2019-06-27T06:32:39.781Z,1023.15
2019-06-27T06:33:39.804Z,1023.22
2019-06-27T06:34:39.832Z,1023.19
2019-06-27T06:35:39.855Z,1023.16
2019-06-27T06:36:39.879Z,1023.17
2019-06-27T06:37:39.896Z,1023.19
2019-06-27T06:38:39.924Z,1023.18
2019-06-27T06:39:39.943Z,1023.25
2019-06-27T06:40:39.963Z,1023.31
2019-06-27T06:41:39.994Z,1023.27
2019-06-27T06:42:40.036Z,1023.31
2019-06-27T06:43:40.031Z,1023.31
2019-06-27T06:44:40.052Z,1023.31
2019-06-27T06:45:40.079Z,1023.31
2019-06-27T06:46:40.119Z,1023.33
2019-06-27T06:47:40.127Z,1023.32
2019-06-27T06:48:40.146Z,1023.31
2019-06-27T06:49:40.180Z,1023.37
2019-06-27T06:50:40.193Z,1023.40
2019-06-27T06:51:40.223Z,1023.43
2019-06-27T06:52:40.241Z,1023.38
2019-06-27T06:53:40.268Z,1023.39
2019-06-27T06:54:40.291Z,1023.39
2019-06-27T06:55:42.714Z,1023.34
2019-06-27T06:56:40.330Z,1023.38
2019-06-27T06:57:40.354Z,1023.45
2019-06-27T06:58:40.391Z,1023.43
2019-06-27T06:59:40.401Z,1023.47
2019-06-27T07:00:40.428Z,1023.44
2019-06-27T07:01:40.452Z,1023.47
2019-06-27T07:02:40.484Z,1023.47
2019-06-27T07:03:40.498Z,1023.46
2019-06-27T07:04:40.521Z,1023.44
2019-06-27T07:05:40.550Z,1023.46
2019-06-27T07:06:40.572Z,1023.44
2019-06-27T07:07:40.591Z,1023.45
2019-06-27T07:08:40.621Z,1023.47
2019-06-27T07:09:40.648Z,1023.51
2019-06-27T07:10:40.663Z,1023.51
2019-06-27T07:11:40.750Z,1023.51
2019-06-27T07:12:40.711Z,1023.49
2019-06-27T07:13:40.737Z,1023.48
2019-06-27T07:14:40.757Z,1023.45
2019-06-27T07:15:40.786Z,1023.46
2019-06-27T07:16:40.810Z,1023.45
2019-06-27T07:17:40.837Z,1023.46
2019-06-27T07:18:40.869Z,1023.51
2019-06-27T07:19:40.880Z,1023.51
2019-06-27T07:20:40.902Z,1023.54
2019-06-27T07:21:40.926Z,1023.52
2019-06-27T07:22:40.958Z,1023.51
2019-06-27T07:23:40.973Z,1023.54
2019-06-27T07:24:41.002Z,1023.50
2019-06-27T07:25:41.953Z,1023.50
2019-06-27T07:26:41.045Z,1023.46
2019-06-27T07:27:41.073Z,1023.49
2019-06-27T07:28:41.129Z,1023.47
2019-06-27T07:29:41.131Z,1023.48
2019-06-27T07:30:41.155Z,1023.45
2019-06-27T07:31:41.181Z,1023.45
2019-06-27T07:32:41.199Z,1023.49
2019-06-27T07:33:41.226Z,1023.45
2019-06-27T07:34:41.247Z,1023.47
2019-06-27T07:35:41.264Z,1023.46
2019-06-27T07:36:41.292Z,1023.47
2019-06-27T07:37:41.321Z,1023.50
2019-06-27T07:38:41.339Z,1023.44
2019-06-27T07:39:41.361Z,1023.46
2019-06-27T07:40:41.388Z,1023.50
2019-06-27T07:41:41.408Z,1023.48
2019-06-27T07:42:41.437Z,1023.46
2019-06-27T07:43:41.462Z,1023.41
2019-06-27T07:44:41.482Z,1023.43
2019-06-27T07:45:41.508Z,1023.40
2019-06-27T07:46:41.526Z,1023.43
2019-06-27T07:47:41.556Z,1023.40
2019-06-27T07:48:41.581Z,1023.39
2019-06-27T07:49:41.621Z,1023.40
2019-06-27T07:50:41.629Z,1023.42
2019-06-27T07:51:41.654Z,1023.40
2019-06-27T07:52:41.924Z,1023.42
2019-06-27T07:53:41.696Z,1023.45
2019-06-27T07:54:41.724Z,1023.40
2019-06-27T07:55:41.741Z,1023.42
2019-06-27T07:56:41.772Z,1023.44
2019-06-27T07:57:41.819Z,1023.39
2019-06-27T07:58:41.825Z,1023.44
2019-06-27T07:59:41.833Z,1023.34
2019-06-27T08:00:41.860Z,1023.41
2019-06-27T08:01:41.889Z,1023.39
2019-06-27T08:02:41.921Z,1023.41
2019-06-27T08:03:41.927Z,1023.44
2019-06-27T08:04:41.954Z,1023.40
2019-06-27T08:05:41.978Z,1023.43
2019-06-27T08:06:42.007Z,1023.40
2019-06-27T08:07:42.029Z,1023.45
2019-06-27T08:08:42.066Z,1023.46
2019-06-27T08:09:42.074Z,1023.42
2019-06-27T08:10:42.099Z,1023.44
2019-06-27T08:11:42.115Z,1023.44
2019-06-27T08:12:42.756Z,1023.46
2019-06-27T08:13:42.169Z,1023.41
2019-06-27T08:14:42.195Z,1023.40
2019-06-27T08:15:42.214Z,1023.39
2019-06-27T08:16:42.288Z,1023.39
2019-06-27T08:17:42.251Z,1023.38
2019-06-27T08:18:42.281Z,1023.42
2019-06-27T08:19:42.301Z,1023.39
2019-06-27T08:20:42.323Z,1023.44
2019-06-27T08:21:42.347Z,1023.39
2019-06-27T08:22:42.369Z,1023.41
2019-06-27T08:23:42.390Z,1023.37
2019-06-27T08:24:42.422Z,1023.31
2019-06-27T08:25:42.439Z,1023.40
2019-06-27T08:26:42.465Z,1023.37
2019-06-27T08:27:42.486Z,1023.35
2019-06-27T08:28:42.512Z,1023.34
2019-06-27T08:29:42.536Z,1023.34
2019-06-27T08:30:42.568Z,1023.33
2019-06-27T08:31:51.412Z,1023.38
2019-06-27T08:32:42.605Z,1023.38
2019-06-27T08:33:42.673Z,1023.35
2019-06-27T08:34:42.650Z,1023.33
2019-06-27T08:35:42.669Z,1023.35
2019-06-27T08:36:42.693Z,1023.26
2019-06-27T08:37:42.718Z,1023.30
2019-06-27T08:38:42.753Z,1023.36
2019-06-27T08:39:42.769Z,1023.32
2019-06-27T08:40:42.802Z,1023.32
2019-06-27T08:41:42.809Z,1023.35
2019-06-27T08:42:42.839Z,1023.35
2019-06-27T08:43:42.855Z,1023.34
2019-06-27T08:44:42.886Z,1023.39
2019-06-27T08:45:42.901Z,1023.33
2019-06-27T08:46:42.933Z,1023.34
2019-06-27T08:47:42.954Z,1023.31
2019-06-27T08:48:42.975Z,1023.35
2019-06-27T08:49:43.001Z,1023.32
2019-06-27T08:50:43.019Z,1023.29
2019-06-27T08:51:43.049Z,1023.32
2019-06-27T08:52:43.070Z,1023.32
2019-06-27T08:53:43.089Z,1023.33
2019-06-27T08:54:43.115Z,1023.31
2019-06-27T08:55:43.139Z,1023.32
2019-06-27T08:56:43.166Z,1023.25
2019-06-27T08:57:43.192Z,1023.28
2019-06-27T08:58:43.214Z,1023.31
2019-06-27T08:59:43.538Z,1023.31
2019-06-27T09:00:45.857Z,1023.34
2019-06-27T09:01:43.284Z,1023.33
2019-06-27T09:02:43.308Z,1023.31
2019-06-27T09:03:43.330Z,1023.29
2019-06-27T09:04:43.351Z,1023.33
2019-06-27T09:05:43.375Z,1023.29
2019-06-27T09:06:43.398Z,1023.26
2019-06-27T09:07:43.432Z,1023.26
2019-06-27T09:08:43.474Z,1023.20
2019-06-27T09:09:43.467Z,1023.21
2019-06-27T09:10:43.502Z,1023.19
2019-06-27T09:11:43.520Z,1023.21
2019-06-27T09:12:43.544Z,1023.16
2019-06-27T09:13:44.020Z,1023.16
2019-06-27T09:14:43.590Z,1023.19
2019-06-27T09:15:43.608Z,1023.16
2019-06-27T09:16:46.585Z,1023.17
2019-06-27T09:17:43.665Z,1023.17
2019-06-27T09:18:43.682Z,1023.20
2019-06-27T09:19:44.057Z,1023.20
2019-06-27T09:20:43.736Z,1023.16
2019-06-27T09:21:43.758Z,1023.15
2019-06-27T09:22:43.776Z,1023.12
2019-06-27T09:23:43.799Z,1023.16
2019-06-27T09:24:43.849Z,1023.13
2019-06-27T09:25:43.871Z,1023.17
2019-06-27T09:26:43.872Z,1023.19
2019-06-27T09:27:43.894Z,1023.16
2019-06-27T09:28:43.989Z,1023.17
2019-06-27T09:29:43.949Z,1023.19
2019-06-27T09:30:43.972Z,1023.16
2019-06-27T09:31:43.986Z,1023.12
2019-06-27T09:32:44.025Z,1023.14
2019-06-27T09:33:44.037Z,1023.11
2019-06-27T09:34:44.064Z,1023.09
2019-06-27T09:35:44.089Z,1023.11
2019-06-27T09:36:44.109Z,1023.13
2019-06-27T09:37:44.134Z,1023.10
2019-06-27T09:38:44.173Z,1023.11
2019-06-27T09:39:44.186Z,1023.05
2019-06-27T09:40:44.199Z,1023.08
2019-06-27T09:41:44.226Z,1023.12
2019-06-27T09:42:44.251Z,1023.08
2019-06-27T09:43:44.272Z,1023.05
2019-06-27T09:44:44.297Z,1023.08
2019-06-27T09:45:44.321Z,1023.06
2019-06-27T09:46:44.345Z,1023.04
2019-06-27T09:47:44.368Z,1023.03
2019-06-27T09:48:44.399Z,1023.03
2019-06-27T09:49:44.420Z,1023.01
2019-06-27T09:50:44.442Z,1023.01
2019-06-27T09:51:44.468Z,1023.01
2019-06-27T09:52:44.491Z,1023.04
2019-06-27T09:53:44.509Z,1022.98
2019-06-27T09:54:44.535Z,1023.05
2019-06-27T09:55:47.323Z,1023.07
2019-06-27T09:56:44.589Z,1023.06
2019-06-27T09:57:44.607Z,1023.03
2019-06-27T09:58:44.636Z,1022.98
2019-06-27T09:59:44.658Z,1023.02
2019-06-27T10:00:44.762Z,1023.07
2019-06-27T10:01:44.703Z,1023.02
2019-06-27T10:02:44.728Z,1023.04
2019-06-27T10:03:44.761Z,1023.05
2019-06-27T10:04:44.783Z,1023.07
2019-06-27T10:05:44.801Z,1023.06
2019-06-27T10:06:44.828Z,1023.05
2019-06-27T10:07:44.861Z,1023.02
2019-06-27T10:08:44.877Z,1023.05
2019-06-27T10:09:44.909Z,1023.07
2019-06-27T10:10:44.925Z,1023.09
2019-06-27T10:11:44.954Z,1023.03
2019-06-27T10:12:44.973Z,1023.05
2019-06-27T10:13:45.002Z,1022.96
2019-06-27T10:14:45.026Z,1022.98
2019-06-27T10:15:45.052Z,1022.99
2019-06-27T10:16:45.085Z,1022.96
2019-06-27T10:17:45.115Z,1022.96
2019-06-27T10:18:45.116Z,1023.01
2019-06-27T10:19:45.199Z,1023.01
2019-06-27T10:20:45.172Z,1022.99
2019-06-27T10:21:45.190Z,1023.01
2019-06-27T10:22:45.223Z,1022.94
2019-06-27T10:23:45.246Z,1022.99
2019-06-27T10:24:45.262Z,1022.97
2019-06-27T10:25:45.287Z,1022.95
2019-06-27T10:26:45.310Z,1022.99
2019-06-27T10:27:45.335Z,1022.94
2019-06-27T10:28:45.361Z,1022.90
2019-06-27T10:29:45.388Z,1022.94
2019-06-27T10:30:49.055Z,1023.01
2019-06-27T10:31:45.434Z,1022.97
2019-06-27T10:32:58.464Z,1022.97
2019-06-27T10:33:45.485Z,1023.00
2019-06-27T10:34:45.516Z,1022.98
2019-06-27T10:35:45.531Z,1023.04
2019-06-27T10:36:45.572Z,1023.00
2019-06-27T10:37:45.582Z,1022.99
2019-06-27T10:38:45.612Z,1022.96
2019-06-27T10:39:45.629Z,1023.00
2019-06-27T10:40:45.652Z,1023.01
2019-06-27T10:41:45.681Z,1022.96
2019-06-27T10:42:45.702Z,1022.95
2019-06-27T10:43:45.731Z,1022.93
2019-06-27T10:44:45.760Z,1022.92
2019-06-27T10:45:45.777Z,1022.89
2019-06-27T10:46:45.806Z,1022.90
2019-06-27T10:47:45.826Z,1022.85
2019-06-27T10:48:45.860Z,1022.85
2019-06-27T10:49:45.875Z,1022.83
2019-06-27T10:50:46.685Z,1022.92
2019-06-27T10:51:45.929Z,1022.88
2019-06-27T10:52:45.950Z,1022.86
2019-06-27T10:53:45.975Z,1022.77
2019-06-27T10:54:46.000Z,1022.84
2019-06-27T10:55:46.034Z,1022.82
2019-06-27T10:56:46.051Z,1022.85
2019-06-27T10:57:46.077Z,1022.86
2019-06-27T10:58:46.097Z,1022.85
2019-06-27T10:59:46.123Z,1022.84
2019-06-27T11:00:46.148Z,1022.83
2019-06-27T11:01:46.180Z,1022.92
2019-06-27T11:02:46.198Z,1022.87
2019-06-27T11:03:46.231Z,1022.83
2019-06-27T11:04:46.254Z,1022.84
2019-06-27T11:05:46.274Z,1022.81
2019-06-27T11:06:46.305Z,1022.79
2019-06-27T11:07:46.325Z,1022.79
2019-06-27T11:08:46.348Z,1022.79
2019-06-27T11:09:49.990Z,1022.81
2019-06-27T11:10:46.417Z,1022.80
2019-06-27T11:11:46.423Z,1022.80
2019-06-27T11:12:46.459Z,1022.81
2019-06-27T11:13:58.289Z,1022.75
2019-06-27T11:14:58.573Z,1022.71
2019-06-27T11:15:49.313Z,1022.72
2019-06-27T11:16:46.546Z,1022.71
2019-06-27T11:17:46.580Z,1022.70
2019-06-27T11:18:46.602Z,1022.70
2019-06-27T11:19:52.262Z,1022.74
2019-06-27T11:20:46.647Z,1022.76
2019-06-27T11:21:46.677Z,1022.72
2019-06-27T11:22:46.704Z,1022.74
2019-06-27T11:23:46.722Z,1022.72
2019-06-27T11:24:46.746Z,1022.66
2019-06-27T11:25:46.779Z,1022.65
2019-06-27T11:26:46.801Z,1022.73
2019-06-27T11:27:46.823Z,1022.66
2019-06-27T11:28:46.860Z,1022.68
2019-06-27T11:29:46.878Z,1022.68
2019-06-27T11:30:46.920Z,1022.65
2019-06-27T11:31:46.922Z,1022.64
2019-06-27T11:32:46.954Z,1022.61
2019-06-27T11:33:46.973Z,1022.64
2019-06-27T11:34:46.997Z,1022.68
2019-06-27T11:35:47.114Z,1022.67
2019-06-27T11:36:47.054Z,1022.61
2019-06-27T11:37:47.077Z,1022.65
2019-06-27T11:38:47.099Z,1022.62
2019-06-27T11:39:47.122Z,1022.54
2019-06-27T11:40:47.149Z,1022.56
2019-06-27T11:41:47.172Z,1022.55
2019-06-27T11:42:47.199Z,1022.57
2019-06-27T11:43:47.258Z,1022.56
2019-06-27T11:44:47.248Z,1022.55
2019-06-27T11:45:47.283Z,1022.55
2019-06-27T11:46:47.296Z,1022.56
2019-06-27T11:47:47.323Z,1022.53
2019-06-27T11:48:47.349Z,1022.55
2019-06-27T11:49:47.374Z,1022.52
2019-06-27T11:50:47.399Z,1022.48
2019-06-27T11:51:47.426Z,1022.53
2019-06-27T11:52:47.706Z,1022.55
2019-06-27T11:53:47.480Z,1022.56
2019-06-27T11:54:47.500Z,1022.53
2019-06-27T11:55:47.528Z,1022.51
2019-06-27T11:56:47.558Z,1022.54
2019-06-27T11:57:47.582Z,1022.49
2019-06-27T11:58:47.606Z,1022.52
2019-06-27T11:59:47.631Z,1022.52
2019-06-27T12:00:47.676Z,1022.45
2019-06-27T12:01:47.681Z,1022.50
2019-06-27T12:02:47.704Z,1022.46
2019-06-27T12:03:49.818Z,1022.43
2019-06-27T12:04:47.754Z,1022.39
2019-06-27T12:05:47.785Z,1022.42